Time;durP1;ratioP1;P1;durP2;ratioP2;P2;SDS_P1;SDS_P2;PMS_P1;PMS_P2;Temp;Humidity;BMP_temperature;BMP_pressure;BME280_temperature;BME280_humidity;BME280_pressure;Samples;Min_cycle;Max_cycle;Signal;HPM_P1;HPM_P2
2022/05/31 00:01:30;;;;;;;9.20;6.30;;;;;;;9.95;72.15;98409.24;106406;1278;22544;-84
2022/05/31 00:03:56;;;;;;;6.70;6.00;;;;;;;9.93;72.24;98410.94;106285;1277;138043;-84
2022/05/31 00:06:22;;;;;;;8.50;5.60;;;;;;;9.90;72.16;98420.84;106302;1278;22566;-85
2022/05/31 00:08:53;;;;;;;8.90;6.60;;;;;;;9.74;72.17;98419.96;106407;1277;136793;-83
2022/05/31 00:11:20;;;;;;;9.70;6.60;;;;;;;9.60;72.26;98418.60;106607;1277;24526;-82
2022/05/31 00:13:46;;;;;;;11.40;6.60;;;;;;;9.55;72.53;98416.90;106061;1278;137657;-82
2022/05/31 00:16:12;;;;;;;9.80;6.50;;;;;;;9.50;73.10;98426.80;106476;1277;27040;-85
2022/05/31 00:18:38;;;;;;;9.90;6.20;;;;;;;9.43;73.45;98423.61;106471;1277;26506;-85
2022/05/31 00:21:05;;;;;;;8.90;6.00;;;;;;;9.33;73.94;98426.77;106390;1276;137426;-82
2022/05/31 00:23:32;;;;;;;8.50;6.50;;;;;;;9.25;74.09;98430.27;106427;1277;25348;-82
2022/05/31 00:25:58;;;;;;;8.90;6.50;;;;;;;9.19;74.36;98420.90;106289;1277;138117;-82
2022/05/31 00:28:25;;;;;;;7.30;6.20;;;;;;;9.21;74.68;98416.98;106430;1277;25503;-83
2022/05/31 00:30:52;;;;;;;9.10;6.80;;;;;;;9.24;74.83;98409.67;106382;1277;22567;-82
2022/05/31 00:33:33;;;;;;;10.50;7.10;;;;;;;9.31;74.85;98405.62;106210;1280;137089;-82
2022/05/31 00:35:59;;;;;;;9.80;6.60;;;;;;;9.32;74.87;98400.42;106282;1277;23563;-82
2022/05/31 00:38:26;;;;;;;9.30;6.50;;;;;;;9.36;74.97;98403.23;106229;1277;137293;-83
2022/05/31 00:41:22;;;;;;;8.80;5.80;;;;;;;9.41;74.84;98398.79;106931;1277;22814;-83
2022/05/31 00:43:40;;;;;;;7.70;6.10;;;;;;;9.47;74.86;98393.73;106284;1277;137750;-81
2022/05/31 00:46:07;;;;;;;9.00;6.60;;;;;;;9.53;74.71;98393.80;106397;1277;24422;-82
2022/05/31 00:48:42;;;;;;;7.90;6.20;;;;;;;9.55;74.50;98389.81;106409;1277;22548;-82
2022/05/31 00:51:13;;;;;;;7.80;6.40;;;;;;;9.59;74.51;98390.28;106178;1277;137315;-82
2022/05/31 00:53:51;;;;;;;8.50;6.40;;;;;;;9.58;74.29;98395.60;106409;1277;22554;-82
2022/05/31 00:56:29;;;;;;;7.20;5.70;;;;;;;9.56;74.25;98401.11;106288;1278;138128;-83
2022/05/31 00:59:00;;;;;;;8.50;6.10;;;;;;;9.50;74.01;98405.70;106285;1278;22636;-83
2022/05/31 01:01:30;;;;;;;8.70;6.30;;;;;;;9.37;73.94;98405.65;106559;1277;22544;-83
2022/05/31 01:03:58;;;;;;;;;;;;;;;9.29;74.30;98404.98;106217;1276;137034;-83
2022/05/31 01:06:27;;;;;;;7.40;5.80;;;;;;;9.25;74.48;98401.27;106137;1277;22583;-83
2022/05/31 01:08:57;;;;;;;;;;;;;;;9.21;74.54;98404.20;106097;1278;137583;-82
2022/05/31 01:11:57;;;;;;;7.00;4.20;;;;;;;9.17;74.66;98407.55;106451;1277;22600;-82
2022/05/31 01:14:27;;;;;;;6.00;4.30;;;;;;;9.18;74.74;98406.66;106471;1277;137950;-82
2022/05/31 01:17:22;;;;;;;6.80;4.60;;;;;;;9.20;74.67;98408.77;106184;1277;25488;-83
2022/05/31 01:20:07;;;;;;;5.40;4.50;;;;;;;9.23;74.77;98407.79;106204;1280;137200;-82
2022/05/31 01:23:19;;;;;;;6.90;4.60;;;;;;;9.24;74.75;98410.31;106636;1277;23316;-82
2022/05/31 01:25:48;;;;;;;;;;;;;;;9.24;74.62;98410.10;105898;1277;137480;-83
2022/05/31 01:28:39;;;;;;;4.70;4.10;;;;;;;9.25;74.67;98413.42;106318;1277;22566;-83
2022/05/31 01:31:15;;;;;;;5.80;4.10;;;;;;;9.26;74.63;98412.52;106340;1277;22547;-82
2022/05/31 01:33:55;;;;;;;6.40;3.90;;;;;;;9.28;74.48;98409.31;106096;1278;137906;-82
2022/05/31 01:36:36;;;;;;;5.60;4.00;;;;;;;9.32;74.46;98407.87;106367;1277;22561;-82
2022/05/31 01:39:07;;;;;;;6.00;4.20;;;;;;;9.34;74.27;98406.23;106515;1277;137210;-82
2022/05/31 01:41:44;;;;;;;7.10;4.30;;;;;;;9.36;74.15;98410.19;106369;1277;22568;-82
2022/05/31 01:44:17;;;;;;;5.50;4.00;;;;;;;9.38;74.27;98418.92;106480;1277;138960;-82
2022/05/31 01:46:46;;;;;;;5.50;4.90;;;;;;;9.38;74.07;98424.14;106144;1280;25385;-82
2022/05/31 01:49:17;;;;;;;6.80;5.00;;;;;;;9.33;73.68;98423.44;106559;1277;24287;-82
2022/05/31 01:51:44;;;;;;;6.10;5.00;;;;;;;9.25;73.64;98426.85;106122;1281;138004;-82
2022/05/31 01:54:14;;;;;;;6.80;5.10;;;;;;;9.22;73.76;98425.43;106179;1281;22573;-83
2022/05/31 01:56:42;;;;;;;7.00;4.70;;;;;;;9.22;73.84;98427.48;106023;1278;137871;-82
2022/05/31 01:59:11;;;;;;;5.90;4.70;;;;;;;9.20;73.90;98433.63;106548;1277;22567;-83
2022/05/31 02:01:40;;;;;;;5.20;4.60;;;;;;;9.16;73.81;98432.16;106159;1277;25261;-83
2022/05/31 02:04:06;;;;;;;7.20;4.50;;;;;;;9.12;74.06;98429.98;106150;1278;22622;-82
2022/05/31 02:06:37;;;;;;;6.80;4.40;;;;;;;9.12;73.94;98429.77;106292;1278;23502;-82
2022/05/31 02:09:06;;;;;;;7.70;4.10;;;;;;;9.12;74.15;98432.27;106680;1277;137654;-82
2022/05/31 02:11:35;;;;;;;8.10;4.50;;;;;;;9.12;74.08;98434.11;106298;1277;24271;-82
2022/05/31 02:14:12;;;;;;;7.00;4.40;;;;;;;9.09;74.05;98428.84;105890;1278;137458;-82
2022/05/31 02:16:39;;;;;;;6.30;4.10;;;;;;;9.03;73.77;98424.35;106169;1277;22556;-82
2022/05/31 02:19:27;;;;;;;7.40;4.80;;;;;;;8.99;73.68;98425.27;105774;1277;23468;-82
2022/05/31 02:22:07;;;;;;;6.20;4.20;;;;;;;8.90;73.52;98430.88;106080;1277;136916;-82
2022/05/31 02:24:34;;;;;;;6.20;4.40;;;;;;;8.84;73.81;98434.70;106531;1277;22544;-82
2022/05/31 02:27:01;;;;;;;6.00;4.40;;;;;;;8.81;74.03;98440.38;106000;1280;138325;-83
2022/05/31 02:29:35;;;;;;;7.50;4.90;;;;;;;8.79;74.13;98447.32;106267;1277;24291;-82
2022/05/31 02:32:03;;;;;;;;;;;;;;;8.72;74.26;98450.91;106370;1277;137097;-82
2022/05/31 02:34:35;;;;;;;8.00;5.20;;;;;;;8.67;74.56;98448.30;106296;1277;22569;-82
2022/05/31 02:37:01;;;;;;;6.40;4.60;;;;;;;8.63;74.61;98443.39;106699;1280;22856;-82
2022/05/31 02:39:43;;;;;;;8.00;4.70;;;;;;;8.55;74.44;98441.97;106027;1277;137053;-82
2022/05/31 02:42:13;;;;;;;7.40;4.70;;;;;;;8.51;74.75;98443.92;106603;1277;22552;-82
2022/05/31 02:44:43;;;;;;;5.10;4.10;;;;;;;8.49;74.65;98446.20;106316;1277;137862;-82
2022/05/31 02:47:10;;;;;;;6.20;4.50;;;;;;;8.50;74.98;98448.94;106228;1277;22554;-82
2022/05/31 02:49:44;;;;;;;5.90;4.60;;;;;;;8.51;74.99;98451.46;106589;1277;22561;-82
2022/05/31 02:52:25;;;;;;;6.00;4.60;;;;;;;8.53;75.19;98451.07;106226;1277;22704;-81
2022/05/31 02:54:52;;;;;;;7.80;4.80;;;;;;;8.54;75.29;98451.16;106001;1277;23881;-81
2022/05/31 02:57:21;;;;;;;6.40;4.20;;;;;;;8.54;75.28;98452.58;106267;1277;137079;-81
2022/05/31 02:59:57;;;;;;;7.70;5.20;;;;;;;8.55;75.28;98456.50;106118;1278;22640;-82
2022/05/31 03:02:46;;;;;;;7.60;5.70;;;;;;;8.58;75.61;98460.92;105701;1277;137867;-82
2022/05/31 03:05:28;;;;;;;6.00;4.50;;;;;;;8.62;76.03;98466.09;106140;1277;22590;-82
2022/05/31 03:08:08;;;;;;;8.70;5.00;;;;;;;8.56;75.39;98468.70;106359;1277;137866;-82
2022/05/31 03:10:48;;;;;;;7.30;5.40;;;;;;;8.49;75.72;98474.42;106208;1277;22560;-82
2022/05/31 03:13:20;;;;;;;16.30;6.10;;;;;;;8.47;75.84;98480.02;106314;1277;22854;-84
2022/05/31 03:15:47;;;;;;;6.30;4.70;;;;;;;8.42;75.83;98481.94;106200;1277;138477;-82
2022/05/31 03:18:19;;;;;;;5.80;4.70;;;;;;;8.38;76.14;98483.48;106853;1277;24340;-82
2022/05/31 03:20:54;;;;;;;9.10;5.80;;;;;;;8.35;76.18;98482.17;106445;1277;137208;-81
2022/05/31 03:23:43;;;;;;;5.70;4.50;;;;;;;8.36;76.31;98486.55;106299;1277;22689;-82
2022/05/31 03:26:16;;;;;;;;;;;;;;;8.40;76.38;98486.08;106449;1277;137887;-82
2022/05/31 03:28:43;;;;;;;8.70;5.00;;;;;;;8.42;76.43;98486.32;106456;1277;23937;-82
2022/05/31 03:31:10;;;;;;;6.10;5.00;;;;;;;8.41;75.98;98482.29;106837;1277;24288;-82
2022/05/31 03:33:37;;;;;;;9.20;4.60;;;;;;;8.37;76.02;98480.65;106655;1278;137774;-83
2022/05/31 03:36:04;;;;;;;6.10;4.50;;;;;;;8.34;76.27;98480.32;106376;1277;24322;-81
2022/05/31 03:38:36;;;;;;;8.00;4.70;;;;;;;8.36;76.46;98479.88;106286;1277;137601;-81
2022/05/31 03:41:03;;;;;;;6.20;4.50;;;;;;;8.42;76.44;98479.42;106533;1277;22633;-81
2022/05/31 03:43:38;;;;;;;5.60;4.50;;;;;;;8.48;76.45;98475.27;106350;1277;24227;-81
2022/05/31 03:46:18;;;;;;;5.80;4.60;;;;;;;8.52;76.52;98472.88;106739;1277;22548;-81
2022/05/31 03:48:59;;;;;;;8.40;5.10;;;;;;;8.56;76.55;98473.14;106985;1277;24327;-81
2022/05/31 03:51:29;;;;;;;8.70;5.50;;;;;;;8.60;76.53;98475.41;106511;1277;138092;-81
2022/05/31 03:53:59;;;;;;;10.00;5.70;;;;;;;8.66;76.77;98483.95;106654;1277;22991;-82
2022/05/31 03:56:46;;;;;;;8.70;6.50;;;;;;;8.75;77.08;98491.88;106652;1277;137494;-81
2022/05/31 03:59:27;;;;;;;13.40;8.30;;;;;;;8.83;77.23;98494.45;106600;1277;25442;-84
2022/05/31 04:01:56;;;;;;;10.20;6.90;;;;;;;8.89;77.10;98492.73;106578;1277;137295;-81
2022/05/31 04:04:22;;;;;;;7.90;5.20;;;;;;;8.96;76.88;98494.13;106756;1277;23201;-81
2022/05/31 04:06:49;;;;;;;7.70;5.60;;;;;;;8.98;76.72;98497.61;106369;1277;22560;-82
2022/05/31 04:09:15;;;;;;;8.70;6.20;;;;;;;9.03;76.72;98496.98;106373;1277;137890;-81
2022/05/31 04:11:41;;;;;;;9.20;6.30;;;;;;;9.10;76.83;98496.50;106688;1277;22545;-81
2022/05/31 04:14:13;;;;;;;8.50;5.80;;;;;;;9.17;76.61;98495.41;106220;1277;137626;-81
2022/05/31 04:16:44;;;;;;;13.40;7.20;;;;;;;9.20;76.52;98491.02;106825;1277;22678;-83
2022/05/31 04:19:11;;;;;;;13.80;6.60;;;;;;;9.24;76.36;98494.42;106338;1277;23033;-81
2022/05/31 04:21:40;;;;;;;6.60;4.80;;;;;;;9.22;76.43;98495.91;106446;1277;137473;-82
2022/05/31 04:24:11;;;;;;;6.90;5.00;;;;;;;9.16;76.65;98493.10;106482;1277;22548;-81
2022/05/31 04:26:43;;;;;;;14.60;7.10;;;;;;;9.12;77.10;98493.29;106543;1277;137088;-81
2022/05/31 04:29:24;;;;;;;11.20;7.00;;;;;;;9.13;77.47;98490.05;106848;1277;22799;-80
2022/05/31 04:32:04;;;;;;;9.80;7.30;;;;;;;9.18;77.77;98491.90;106385;1277;138163;-82
2022/05/31 04:34:42;;;;;;;10.40;6.20;;;;;;;9.28;78.03;98495.40;106640;1277;22561;-81
2022/05/31 04:37:09;;;;;;;15.70;8.50;;;;;;;9.35;78.15;98494.52;106419;1277;24991;-82
2022/05/31 04:39:56;;;;;;;10.70;7.60;;;;;;;9.40;77.81;98494.59;106491;1277;137404;-81
2022/05/31 04:42:34;;;;;;;12.50;8.00;;;;;;;9.46;77.90;98495.27;106521;1277;25270;-82
2022/05/31 04:45:04;;;;;;;13.10;8.00;;;;;;;9.52;77.73;98492.80;106395;1277;137284;-80
2022/05/31 04:47:46;;;;;;;10.20;7.80;;;;;;;9.59;77.77;98495.92;106592;1277;24224;-81
2022/05/31 04:50:16;;;;;;;9.80;7.10;;;;;;;9.65;77.51;98500.77;106673;1277;137992;-81
2022/05/31 04:52:43;;;;;;;11.30;7.10;;;;;;;9.72;77.53;98496.98;106708;1277;22631;-83
2022/05/31 04:55:09;;;;;;;9.70;7.50;;;;;;;9.75;77.77;98496.29;106423;1277;24387;-81
2022/05/31 04:58:06;;;;;;;14.40;7.20;;;;;;;9.78;77.79;98493.98;106538;1277;137183;-83
2022/05/31 05:00:32;;;;;;;;;;;;;;;9.83;77.73;98496.69;106109;1283;22595;-81
2022/05/31 05:03:04;;;;;;;8.10;6.30;;;;;;;9.87;77.94;98498.99;106282;1281;124052;-81
2022/05/31 05:05:33;;;;;;;7.50;5.70;;;;;;;9.93;77.73;98497.92;106217;1281;25504;-82
2022/05/31 05:08:16;;;;;;;7.10;5.30;;;;;;;9.99;77.36;98503.48;106183;1281;137603;-82
2022/05/31 05:10:45;;;;;;;12.20;5.80;;;;;;;10.06;77.41;98495.11;106143;1281;22731;-81
2022/05/31 05:13:35;;;;;;;8.00;5.30;;;;;;;10.19;77.05;98490.36;106301;1281;22584;-81
2022/05/31 05:16:17;;;;;;;8.40;5.50;;;;;;;10.32;76.55;98490.40;106909;1281;22594;-82
2022/05/31 05:19:03;;;;;;;9.20;6.00;;;;;;;10.42;75.60;98489.80;106248;1281;24237;-81
2022/05/31 05:21:30;;;;;;;9.20;6.20;;;;;;;10.52;75.18;98494.23;106279;1281;138581;-81
2022/05/31 05:24:18;;;;;;;6.80;5.70;;;;;;;10.62;74.85;98496.92;106159;1284;23975;-80
2022/05/31 05:26:55;;;;;;;10.10;5.70;;;;;;;10.76;74.98;98498.85;105750;1281;138512;-81
2022/05/31 05:33:02;;;;;;;9.60;6.50;;;;;;;11.07;74.87;98494.39;106462;1277;138798;-80
2022/05/31 05:35:47;;;;;;;10.80;7.40;;;;;;;11.21;75.05;98493.02;107047;1277;22653;-81
2022/05/31 05:38:15;;;;;;;12.10;7.60;;;;;;;11.33;74.36;98500.77;106692;1277;137663;-80
2022/05/31 05:41:02;;;;;;;10.40;7.10;;;;;;;11.45;74.19;98500.14;106489;1277;22561;-81
2022/05/31 05:43:43;;;;;;;11.40;7.20;;;;;;;11.55;73.73;98496.10;106500;1277;138081;-81
2022/05/31 05:46:27;;;;;;;10.00;7.00;;;;;;;11.63;73.31;98499.10;106839;1277;25278;-81
2022/05/31 05:48:55;;;;;;;9.10;6.00;;;;;;;11.73;73.09;98501.81;106736;1277;22558;-81
2022/05/31 05:51:27;;;;;;;11.80;7.10;;;;;;;11.83;73.19;98499.49;106509;1277;137599;-81
2022/05/31 05:54:08;;;;;;;12.80;7.80;;;;;;;11.96;73.34;98501.71;106706;1277;22726;-81
2022/05/31 05:56:49;;;;;;;15.40;6.70;;;;;;;12.10;73.35;98504.30;106419;1277;137458;-80
2022/05/31 05:59:28;;;;;;;11.10;6.70;;;;;;;12.21;72.91;98501.59;106326;1277;22635;-83
2022/05/31 06:02:21;;;;;;;9.10;7.20;;;;;;;12.33;72.67;98495.89;106845;1276;138622;-81
2022/05/31 06:05:26;;;;;;;13.20;7.30;;;;;;;12.44;72.09;98494.09;107151;1277;25467;-81
2022/05/31 06:08:09;;;;;;;15.50;7.70;;;;;;;12.52;72.28;98493.31;106225;1277;138171;-81
2022/05/31 06:10:48;;;;;;;21.60;6.80;;;;;;;12.64;71.85;98492.83;106462;1277;24433;-81
2022/05/31 06:13:30;;;;;;;10.60;7.20;;;;;;;12.77;71.56;98492.25;106131;1278;137742;-81
2022/05/31 06:15:57;;;;;;;10.80;8.10;;;;;;;12.89;71.25;98488.10;106992;1277;22554;-81
2022/05/31 06:18:32;;;;;;;11.20;7.90;;;;;;;13.01;71.06;98483.08;106106;1280;138431;-81
2022/05/31 06:21:02;;;;;;;13.70;7.70;;;;;;;13.13;71.07;98479.17;106452;1277;22707;-82
2022/05/31 06:23:29;;;;;;;11.20;8.00;;;;;;;13.25;70.77;98476.42;106253;1278;25349;-81
2022/05/31 06:25:59;;;;;;;8.70;7.30;;;;;;;13.37;70.39;98475.94;106489;1277;137492;-81
2022/05/31 06:28:48;;;;;;;11.50;7.70;;;;;;;13.51;70.23;98479.05;106386;1277;22593;-81
2022/05/31 06:31:16;;;;;;;11.30;8.50;;;;;;;13.61;69.97;98477.31;106644;1280;137472;-82
2022/05/31 06:33:44;;;;;;;9.80;7.50;;;;;;;13.73;69.73;98482.19;106773;1280;22558;-81
2022/05/31 06:36:14;;;;;;;8.60;7.80;;;;;;;13.83;69.39;98483.84;106288;1280;22550;-81
2022/05/31 06:38:54;;;;;;;10.80;7.40;;;;;;;13.96;68.36;98482.52;106412;1277;25506;-82
2022/05/31 06:41:21;;;;;;;12.30;8.40;;;;;;;14.08;68.07;98485.42;106483;1278;24235;-82
2022/05/31 06:44:07;;;;;;;12.20;7.40;;;;;;;14.22;68.19;98487.40;106297;1277;137877;-82
2022/05/31 06:47:03;;;;;;;10.90;8.10;;;;;;;14.36;67.67;98485.53;106663;1278;25333;-82
2022/05/31 06:49:43;;;;;;;10.40;7.20;;;;;;;14.49;67.46;98485.69;106298;1277;137895;-82
2022/05/31 06:58:27;;;;;;;9.00;7.10;;;;;;;14.89;65.61;98483.44;106321;1278;24323;-83
2022/05/31 07:01:03;;;;;;;10.10;7.20;;;;;;;15.01;65.53;98482.62;106251;1277;137776;-84
2022/05/31 07:03:29;;;;;;;13.50;7.30;;;;;;;15.13;65.19;98476.15;106144;1280;24283;-82
2022/05/31 07:05:57;;;;;;;15.40;7.40;;;;;;;15.24;64.78;98473.79;106215;1277;24330;-83
2022/05/31 07:08:24;;;;;;;13.20;7.30;;;;;;;15.36;63.75;98474.77;106723;1277;137373;-81
2022/05/31 07:10:58;;;;;;;8.70;6.60;;;;;;;15.46;63.66;98477.33;106261;1277;22560;-80
2022/05/31 07:13:37;;;;;;;9.20;6.20;;;;;;;15.57;63.42;98476.93;106138;1277;137599;-81
2022/05/31 07:16:17;;;;;;;16.80;6.90;;;;;;;15.68;62.79;98475.70;106479;1277;24374;-81
2022/05/31 07:18:44;;;;;;;17.00;7.00;;;;;;;15.77;62.53;98470.21;105829;1280;137458;-81
2022/05/31 07:21:12;;;;;;;8.30;6.00;;;;;;;15.90;62.13;98473.59;106289;1277;22663;-81
2022/05/31 07:23:40;;;;;;;12.50;7.10;;;;;;;16.02;61.67;98471.08;106482;1277;22550;-81
2022/05/31 07:26:09;;;;;;;13.60;7.30;;;;;;;16.15;61.50;98470.97;106092;1277;137649;-81
2022/05/31 07:28:36;;;;;;;8.60;5.60;;;;;;;16.26;61.26;98470.86;106108;1280;24240;-82
2022/05/31 07:31:07;;;;;;;7.00;6.20;;;;;;;16.38;60.67;98471.79;106615;1279;137433;-82
2022/05/31 07:33:43;;;;;;;7.60;6.50;;;;;;;16.50;60.70;98471.95;106159;1279;24323;-81
2022/05/31 07:36:10;;;;;;;16.00;6.30;;;;;;;16.63;60.48;98474.12;105983;1279;22695;-80
2022/05/31 07:38:51;;;;;;;13.60;8.50;;;;;;;16.78;60.26;98472.77;106018;1280;25506;-82
2022/05/31 07:41:19;;;;;;;15.80;7.80;;;;;;;16.89;59.74;98476.74;106193;1280;24394;-82
2022/05/31 07:43:45;;;;;;;14.40;8.40;;;;;;;17.01;59.39;98470.22;105841;1280;137368;-81
2022/05/31 07:46:13;;;;;;;14.30;8.10;;;;;;;17.14;59.19;98471.92;105796;1278;26525;-81
2022/05/31 07:48:40;;;;;;;21.20;11.10;;;;;;;17.28;58.81;98471.54;106302;1277;138074;-81
2022/05/31 07:51:28;;;;;;;16.40;11.00;;;;;;;17.42;57.84;98472.02;106236;1279;22553;-81
2022/05/31 07:54:17;;;;;;;14.90;8.90;;;;;;;17.57;57.39;98472.15;106055;1278;22547;-83
2022/05/31 07:56:57;;;;;;;14.50;9.20;;;;;;;17.71;56.90;98468.92;106311;1277;22547;-82
2022/05/31 08:00:03;;;;;;;17.50;9.10;;;;;;;17.86;56.85;98467.73;106566;1277;24334;-81
2022/05/31 08:02:43;;;;;;;16.60;10.50;;;;;;;18.02;56.53;98469.05;106235;1277;137359;-81
2022/05/31 08:05:09;;;;;;;14.80;9.90;;;;;;;18.16;56.10;98464.80;106164;1278;25570;-82
2022/05/31 08:07:50;;;;;;;16.10;9.10;;;;;;;18.35;55.95;98466.82;106183;1278;137461;-83
2022/05/31 08:10:32;;;;;;;12.90;8.20;;;;;;;18.51;55.07;98465.95;106598;1277;22713;-82
2022/05/31 08:12:58;;;;;;;13.70;7.90;;;;;;;18.64;54.24;98467.41;106227;1277;137539;-82
2022/05/31 08:15:25;;;;;;;14.40;7.90;;;;;;;18.79;53.50;98461.63;106286;1278;22664;-81
2022/05/31 08:17:51;;;;;;;11.30;7.60;;;;;;;18.89;52.86;98461.27;106437;1277;23954;-82
2022/05/31 08:20:18;;;;;;;12.50;6.80;;;;;;;19.00;53.05;98461.21;106326;1277;137484;-81
2022/05/31 08:22:45;;;;;;;7.80;6.70;;;;;;;19.14;52.83;98462.76;106387;1277;22690;-81
2022/05/31 08:25:12;;;;;;;9.00;5.90;;;;;;;19.28;51.69;98464.45;105764;1277;137577;-82
2022/05/31 08:27:38;;;;;;;5.90;4.80;;;;;;;19.42;50.62;98457.55;106323;1277;22563;-82
2022/05/31 08:30:06;;;;;;;7.20;4.90;;;;;;;19.55;49.65;98460.46;107105;1278;22571;-82
2022/05/31 08:32:35;;;;;;;12.90;6.30;;;;;;;19.70;49.10;98458.59;106726;1277;137379;-82
2022/05/31 08:35:03;;;;;;;10.00;5.40;;;;;;;19.68;48.13;98459.39;106478;1280;24266;-82
2022/05/31 08:37:30;;;;;;;7.30;5.20;;;;;;;19.54;48.65;98458.98;106034;1280;137464;-82
2022/05/31 08:39:59;;;;;;;8.50;4.70;;;;;;;19.60;49.06;98460.43;106458;1278;22558;-83
2022/05/31 08:42:57;;;;;;;7.80;4.00;;;;;;;19.79;48.75;98460.77;106970;1277;137458;-82
2022/05/31 08:45:26;;;;;;;7.00;4.40;;;;;;;20.05;47.68;98452.72;106603;1277;25338;-83
2022/05/31 08:48:09;;;;;;;7.30;4.90;;;;;;;20.15;47.26;98450.48;106902;1277;23357;-83
2022/05/31 08:53:46;;;;;;;6.50;3.70;;;;;;;20.36;47.53;98445.77;106556;1280;25315;-82
2022/05/31 08:59:14;;;;;;;4.90;4.40;;;;;;;20.67;45.91;98443.06;106711;1278;22567;-83
2022/05/31 09:01:53;;;;;;;5.00;4.10;;;;;;;20.91;44.89;98445.62;106463;1280;137291;-83
2022/05/31 09:04:35;;;;;;;6.40;3.80;;;;;;;21.17;43.73;98439.48;106189;1280;23487;-82
2022/05/31 09:07:14;;;;;;;7.70;3.70;;;;;;;21.41;43.28;98438.51;106530;1278;137781;-83
2022/05/31 09:09:59;;;;;;;7.00;3.30;;;;;;;21.59;42.68;98438.98;106718;1277;25386;-82
2022/05/31 09:12:48;;;;;;;7.20;2.60;;;;;;;21.83;42.60;98440.56;106251;1277;137745;-82
2022/05/31 09:15:23;;;;;;;4.50;2.20;;;;;;;22.10;42.28;98436.13;106535;1279;23946;-83
2022/05/31 09:18:22;;;;;;;4.00;1.70;;;;;;;22.38;40.92;98438.79;106371;1278;23158;-82
2022/05/31 09:20:58;;;;;;;2.00;1.60;;;;;;;22.59;37.91;98438.59;106497;1278;25465;-83
2022/05/31 09:23:35;;;;;;;2.70;1.00;;;;;;;22.77;36.30;98441.35;106221;1280;23593;-82
2022/05/31 09:26:32;;;;;;;2.20;1.60;;;;;;;23.03;35.29;98440.93;106260;1280;137712;-83
2022/05/31 09:29:13;;;;;;;2.50;1.50;;;;;;;23.20;35.49;98435.43;106221;1277;26669;-83
2022/05/31 09:32:17;;;;;;;5.40;1.40;;;;;;;23.28;34.51;98442.10;106475;1277;139266;-84
2022/05/31 09:35:33;;;;;;;4.30;1.50;;;;;;;23.34;34.48;98439.31;106684;1277;23331;-83
2022/05/31 09:38:32;;;;;;;3.00;1.50;;;;;;;23.45;33.94;98437.74;106362;1278;137027;-84
2022/05/31 09:41:24;;;;;;;2.70;1.50;;;;;;;23.57;34.08;98434.67;106202;1278;24234;-83
2022/05/31 09:43:54;;;;;;;3.80;1.50;;;;;;;23.80;33.67;98431.60;106124;1278;137207;-84
2022/05/31 09:46:39;;;;;;;2.00;1.40;;;;;;;23.95;32.77;98425.23;106357;1278;22596;-83
2022/05/31 09:49:16;;;;;;;1.90;1.50;;;;;;;24.11;32.81;98429.63;107120;1278;137462;-83
2022/05/31 09:51:43;;;;;;;3.10;2.40;;;;;;;24.25;32.25;98423.56;106683;1278;25385;-83
2022/05/31 09:57:28;;;;;;;1.60;1.00;;;;;;;24.39;30.97;98416.83;106064;1280;25498;-83
2022/05/31 10:00:15;;;;;;;4.00;1.20;;;;;;;24.41;30.84;98413.64;106105;1280;22578;-85
2022/05/31 10:03:17;;;;;;;2.20;1.50;;;;;;;24.51;31.78;98415.01;106233;1280;22632;-86
2022/05/31 10:05:48;;;;;;;1.80;1.70;;;;;;;24.47;31.03;98414.73;106453;1280;22634;-83
2022/05/31 10:08:31;;;;;;;1.90;1.70;;;;;;;24.41;30.48;98410.69;106222;1280;137153;-80
2022/05/31 10:11:04;;;;;;;3.20;1.60;;;;;;;24.36;30.71;98412.86;106168;1280;23917;-81
2022/05/31 10:13:36;;;;;;;2.50;1.60;;;;;;;24.40;30.57;98409.27;106009;1280;137334;-80
2022/05/31 10:16:19;;;;;;;1.90;1.60;;;;;;;24.43;30.97;98417.42;106962;1277;22568;-84
2022/05/31 10:18:54;;;;;;;2.10;1.90;;;;;;;24.43;30.68;98406.39;106046;1280;137335;-85
2022/05/31 10:21:38;;;;;;;3.20;2.10;;;;;;;24.47;30.52;98403.20;106095;1278;22755;-84
2022/05/31 10:24:18;;;;;;;4.20;1.90;;;;;;;24.58;30.91;98404.38;106116;1280;24473;-85
2022/05/31 10:27:05;;;;;;;4.80;2.80;;;;;;;24.77;31.96;98404.83;106177;1280;22610;-83
2022/05/31 10:29:51;;;;;;;1.90;1.70;;;;;;;24.91;32.11;98401.61;106328;1277;24380;-84
2022/05/31 10:32:55;;;;;;;3.20;1.70;;;;;;;25.07;31.64;98396.15;106345;1280;137395;-84
2022/05/31 10:35:31;;;;;;;4.00;1.60;;;;;;;25.16;30.92;98397.10;106319;1278;22571;-85
2022/05/31 10:37:59;;;;;;;;;;;;;;;25.23;31.55;98393.88;106268;1278;137681;-84
2022/05/31 10:40:55;;;;;;;7.00;3.40;;;;;;;25.28;31.58;98390.30;106527;1280;24292;-85
2022/05/31 10:43:25;;;;;;;2.30;2.10;;;;;;;25.31;30.80;98387.77;106020;1278;138003;-84
2022/05/31 10:45:54;;;;;;;8.40;2.30;;;;;;;25.40;30.97;98385.95;106279;1278;24077;-84
2022/05/31 10:48:22;;;;;;;4.20;2.00;;;;;;;25.49;31.39;98388.48;106818;1278;26148;-85
2022/05/31 10:50:58;;;;;;;6.70;2.40;;;;;;;25.25;31.12;98385.02;106744;1280;24469;-83
2022/05/31 10:53:38;;;;;;;5.00;2.40;;;;;;;25.01;31.85;98387.98;106180;1280;23189;-84
2022/05/31 10:56:25;;;;;;;8.50;2.50;;;;;;;25.04;32.71;98388.95;106260;1280;137076;-84
2022/05/31 10:59:01;;;;;;;2.50;2.30;;;;;;;25.05;32.29;98389.47;106454;1280;26628;-84
2022/05/31 11:01:46;;;;;;;3.10;2.00;;;;;;;25.30;32.32;98384.17;106200;1277;137317;-84
2022/05/31 11:04:24;;;;;;;4.10;2.30;;;;;;;25.55;30.78;98376.91;106418;1280;27492;-85
2022/05/31 11:07:13;;;;;;;4.20;2.50;;;;;;;25.66;31.48;98370.17;106001;1279;137407;-85
2022/05/31 11:12:59;;;;;;;2.90;2.10;;;;;;;25.79;31.50;98372.20;105929;1279;137383;-84
2022/05/31 11:15:46;;;;;;;3.20;2.40;;;;;;;25.77;31.02;98364.88;105933;1279;23118;-85
2022/05/31 11:18:30;;;;;;;5.40;2.40;;;;;;;25.77;30.80;98362.41;106007;1279;25248;-86
2022/05/31 11:21:06;;;;;;;7.90;2.30;;;;;;;25.68;30.59;98358.04;105948;1280;22525;-86
2022/05/31 11:23:52;;;;;;;3.30;2.40;;;;;;;25.71;31.27;98354.65;106371;1280;22554;-84
2022/05/31 11:26:22;;;;;;;3.70;2.30;;;;;;;25.91;30.88;98352.55;105857;1277;137113;-83
2022/05/31 11:28:57;;;;;;;3.20;2.10;;;;;;;25.80;30.93;98352.86;105971;1277;25261;-83
2022/05/31 11:31:38;;;;;;;4.10;2.60;;;;;;;25.65;31.01;98352.77;105876;1280;137395;-85
2022/05/31 11:34:42;;;;;;;3.70;2.00;;;;;;;25.83;31.21;98353.60;106212;1277;22993;-85
2022/05/31 11:37:25;;;;;;;3.60;2.20;;;;;;;25.90;31.21;98351.74;105887;1278;137902;-84
2022/05/31 11:39:54;;;;;;;2.10;1.80;;;;;;;26.05;31.14;98342.67;106074;1280;25554;-86
2022/05/31 11:42:40;;;;;;;4.10;2.20;;;;;;;26.20;31.50;98346.50;106417;1278;24359;-85
2022/05/31 11:45:33;;;;;;;2.90;2.10;;;;;;;26.44;30.64;98346.89;106208;1280;24259;-84
2022/05/31 11:48:13;;;;;;;3.00;1.80;;;;;;;26.63;29.70;98341.16;106170;1278;24217;-82
2022/05/31 11:50:48;;;;;;;3.20;1.90;;;;;;;26.63;29.59;98336.52;106138;1279;136909;-84
2022/05/31 11:53:32;;;;;;;4.30;2.20;;;;;;;26.55;29.84;98340.02;106098;1280;23113;-84
2022/05/31 11:56:09;;;;;;;2.20;2.00;;;;;;;26.52;29.86;98339.54;106122;1280;137265;-85
2022/05/31 11:58:55;;;;;;;3.70;2.00;;;;;;;26.52;30.31;98338.02;106320;1280;22559;-82
2022/05/31 12:01:32;;;;;;;2.00;1.80;;;;;;;26.70;30.25;98336.73;106199;1278;137629;-85
2022/05/31 12:04:19;;;;;;;2.20;1.90;;;;;;;26.88;29.56;98331.34;106131;1280;30576;-87
2022/05/31 12:07:04;;;;;;;2.90;2.00;;;;;;;27.09;28.90;98325.82;106386;1278;137453;-86
2022/05/31 12:10:03;;;;;;;2.80;1.90;;;;;;;27.22;28.74;98321.55;106550;1279;23706;-87
2022/05/31 12:12:32;;;;;;;4.00;2.40;;;;;;;27.17;29.08;98321.91;106146;1280;138082;-87
2022/05/31 12:15:14;;;;;;;2.20;2.00;;;;;;;26.78;29.18;98322.12;105990;1280;24504;-84
2022/05/31 12:17:54;;;;;;;2.30;1.90;;;;;;;26.27;29.45;98321.83;106267;1280;22547;-84
2022/05/31 12:20:31;;;;;;;1.90;1.70;;;;;;;26.01;29.92;98310.73;106336;1280;137107;-85
2022/05/31 12:23:12;;;;;;;5.20;2.00;;;;;;;26.19;30.56;98311.29;106403;1280;22717;-84
2022/05/31 12:25:56;;;;;;;2.10;1.90;;;;;;;26.45;30.72;98301.52;106589;1277;137591;-85
2022/05/31 12:29:03;;;;;;;3.90;1.50;;;;;;;26.66;29.94;98292.65;106249;1277;22570;-86